Time;durP1;ratioP1;P1;durP2;ratioP2;P2;SDS_P1;SDS_P2;PMS_P1;PMS_P2;Temp;Humidity;BMP_temperature;BMP_pressure;BME280_temperature;BME280_humidity;BME280_pressure;Samples;Min_cycle;Max_cycle;Signal;HPM_P1;HPM_P2
2021/11/08 00:01:11;;;;;;;1999.90;999.90;;;;;;;7.90;100.00;95855.63;5050728;28;20216;-68
2021/11/08 00:03:43;;;;;;;1999.90;999.90;;;;;;;7.92;100.00;95863.13;5050385;28;20567;-68
2021/11/08 00:06:10;;;;;;;1999.90;999.90;;;;;;;7.78;100.00;95853.34;5050263;28;20201;-68
2021/11/08 00:08:39;;;;;;;1999.90;999.90;;;;;;;7.74;100.00;95862.69;5050420;28;20193;-68
2021/11/08 00:11:06;;;;;;;1999.90;999.90;;;;;;;7.64;100.00;95870.50;5049974;28;20193;-68
2021/11/08 00:13:33;;;;;;;1999.90;999.90;;;;;;;7.63;100.00;95868.16;5049923;28;20197;-68
2021/11/08 00:16:10;;;;;;;1999.90;999.90;;;;;;;7.51;100.00;95863.31;5049760;28;20190;-68
2021/11/08 00:18:44;;;;;;;1999.90;999.90;;;;;;;7.55;100.00;95861.72;5050193;28;20191;-68
2021/11/08 00:21:11;;;;;;;1999.90;999.90;;;;;;;7.42;100.00;95867.47;5049837;28;20205;-68
2021/11/08 00:23:39;;;;;;;1999.90;999.90;;;;;;;7.37;100.00;95859.75;5049859;28;20297;-68
2021/11/08 00:26:06;;;;;;;1999.90;999.90;;;;;;;7.38;100.00;95858.69;5050190;28;20285;-68
2021/11/08 00:28:33;;;;;;;1999.90;999.90;;;;;;;7.40;100.00;95861.78;5049730;28;20742;-68
2021/11/08 00:31:00;;;;;;;1999.90;999.90;;;;;;;7.37;100.00;95853.78;5050196;28;20561;-68
2021/11/08 00:33:27;;;;;;;1999.90;999.90;;;;;;;7.44;100.00;95849.88;5049842;28;20189;-68
2021/11/08 00:35:58;;;;;;;1999.90;999.90;;;;;;;7.51;100.00;95842.63;5051869;28;20287;-68
2021/11/08 00:38:26;;;;;;;1999.90;999.90;;;;;;;7.59;100.00;95843.88;5054088;28;20219;-68
2021/11/08 00:40:54;;;;;;;1999.90;999.90;;;;;;;7.52;100.00;95851.91;5054041;28;20255;-68
2021/11/08 00:43:23;;;;;;;1999.90;999.90;;;;;;;7.41;100.00;95842.66;5054107;28;20197;-68
2021/11/08 00:45:51;;;;;;;1999.90;999.90;;;;;;;7.44;100.00;95849.09;5054076;28;20327;-68
2021/11/08 00:48:21;;;;;;;1999.90;999.90;;;;;;;7.26;100.00;95835.72;5053647;28;20262;-68
2021/11/08 00:50:49;;;;;;;1999.90;999.90;;;;;;;7.23;100.00;95835.47;5054177;28;20609;-68
2021/11/08 00:53:18;;;;;;;1999.90;999.90;;;;;;;7.33;100.00;95841.38;5053480;28;20279;-68
2021/11/08 00:55:46;;;;;;;1999.90;999.90;;;;;;;7.48;100.00;95830.19;5053792;28;20212;-68
2021/11/08 00:58:18;;;;;;;1999.90;999.90;;;;;;;7.44;100.00;95836.94;5053843;28;20200;-68
2021/11/08 01:00:45;;;;;;;1999.90;999.90;;;;;;;7.56;100.00;95829.66;5053826;28;20575;-67
2021/11/08 01:03:15;;;;;;;1999.90;999.90;;;;;;;7.50;100.00;95828.13;5053741;28;20229;-68
2021/11/08 01:05:43;;;;;;;1999.90;999.90;;;;;;;7.50;100.00;95815.22;5050851;28;20729;-68
2021/11/08 01:08:10;;;;;;;1999.90;999.90;;;;;;;7.37;100.00;95828.72;5051794;28;20212;-68
2021/11/08 01:10:39;;;;;;;1999.90;999.90;;;;;;;7.42;100.00;95818.34;5051917;28;20205;-68
2021/11/08 01:13:06;;;;;;;1999.90;999.90;;;;;;;7.45;100.00;95817.81;5052367;28;20266;-68
2021/11/08 01:15:33;;;;;;;1999.90;999.90;;;;;;;7.56;100.00;95819.31;5051826;28;20658;-68
2021/11/08 01:18:00;;;;;;;1999.90;999.90;;;;;;;7.56;100.00;95818.56;5052287;28;20208;-68
2021/11/08 01:20:32;;;;;;;1999.90;999.90;;;;;;;7.60;100.00;95812.59;5051843;28;20197;-68
2021/11/08 01:23:00;;;;;;;1999.90;999.90;;;;;;;7.59;100.00;95811.03;5051741;28;20251;-68
2021/11/08 01:25:28;;;;;;;1999.90;999.90;;;;;;;7.60;100.00;95804.81;5051677;28;20280;-68
2021/11/08 01:27:59;;;;;;;1999.90;999.90;;;;;;;7.49;100.00;95798.16;5052367;28;20197;-68
2021/11/08 01:30:28;;;;;;;1999.90;999.90;;;;;;;7.35;100.00;95800.53;5051678;28;20190;-68
2021/11/08 01:33:00;;;;;;;1999.90;999.90;;;;;;;7.11;100.00;95801.41;5051934;28;20201;-68
2021/11/08 01:35:31;;;;;;;1999.90;999.90;;;;;;;7.20;100.00;95798.00;5051637;28;20225;-68
2021/11/08 01:38:06;;;;;;;1999.90;999.90;;;;;;;6.91;100.00;95810.75;5051592;28;20198;-68
2021/11/08 01:40:33;;;;;;;1999.90;999.90;;;;;;;6.98;100.00;95807.88;5051561;28;20196;-68
2021/11/08 01:43:02;;;;;;;1999.90;999.90;;;;;;;6.95;100.00;95799.88;5052115;28;20221;-68
2021/11/08 01:45:30;;;;;;;1999.90;999.90;;;;;;;6.96;100.00;95797.03;5051361;28;20193;-68
2021/11/08 01:47:57;;;;;;;1999.90;999.90;;;;;;;6.91;100.00;95791.88;5051053;28;20209;-68
2021/11/08 01:50:26;;;;;;;1999.90;999.90;;;;;;;6.84;100.00;95791.38;5051403;28;20239;-68
2021/11/08 01:52:53;;;;;;;1999.90;999.90;;;;;;;6.84;100.00;95783.63;5051419;28;20760;-68
2021/11/08 01:55:22;;;;;;;1999.90;999.90;;;;;;;6.80;100.00;95788.56;5051282;28;20201;-68
2021/11/08 01:57:50;;;;;;;1999.90;999.90;;;;;;;6.71;100.00;95787.53;5051581;28;20193;-68
2021/11/08 02:00:20;;;;;;;1999.90;999.90;;;;;;;6.68;100.00;95782.88;5051379;28;20258;-68
2021/11/08 02:02:48;;;;;;;1999.90;999.90;;;;;;;6.52;100.00;95785.75;5051480;28;20225;-68
2021/11/08 02:05:15;;;;;;;1999.90;999.90;;;;;;;6.54;100.00;95781.09;5005629;28;1316802;-68
2021/11/08 02:07:42;;;;;;;1999.90;999.90;;;;;;;6.57;100.00;95780.59;5052415;28;20198;-68
2021/11/08 02:10:12;;;;;;;1999.90;999.90;;;;;;;6.52;100.00;95773.63;5052132;28;20201;-68
2021/11/08 02:12:40;;;;;;;1999.90;999.90;;;;;;;6.57;100.00;95776.22;5052014;28;20193;-67
2021/11/08 02:15:12;;;;;;;1999.90;999.90;;;;;;;6.41;100.00;95783.19;5052260;28;20201;-68
2021/11/08 02:17:43;;;;;;;1999.90;999.90;;;;;;;6.30;100.00;95775.69;5052420;28;20189;-68
2021/11/08 02:20:17;;;;;;;1999.90;999.90;;;;;;;6.36;100.00;95767.69;5051911;28;20200;-68
2021/11/08 02:22:45;;;;;;;1999.90;999.90;;;;;;;6.25;100.00;95773.13;5052142;28;20212;-68
2021/11/08 02:25:13;;;;;;;1999.90;999.90;;;;;;;6.17;100.00;95779.59;5052100;28;20578;-68
2021/11/08 02:27:42;;;;;;;1999.90;999.90;;;;;;;6.15;100.00;95765.38;5052244;28;20200;-67
2021/11/08 02:30:11;;;;;;;1999.90;999.90;;;;;;;6.25;100.00;95762.78;5051765;28;20628;-68
2021/11/08 02:32:39;;;;;;;1999.90;999.90;;;;;;;6.22;100.00;95763.31;5051636;28;20296;-68
2021/11/08 02:35:10;;;;;;;1999.90;999.90;;;;;;;6.27;100.00;95764.09;5051791;28;20284;-68
2021/11/08 02:37:40;;;;;;;1999.90;999.90;;;;;;;6.13;100.00;95772.63;5052156;28;20575;-68
2021/11/08 02:40:09;;;;;;;1999.90;999.90;;;;;;;6.13;100.00;95765.63;5051713;28;20294;-68
2021/11/08 02:42:36;;;;;;;1999.90;999.90;;;;;;;6.16;100.00;95766.94;5051405;28;20747;-68
2021/11/08 02:45:07;;;;;;;1999.90;999.90;;;;;;;6.13;100.00;95765.63;5051546;28;20254;-68
2021/11/08 02:47:34;;;;;;;1999.90;999.90;;;;;;;6.10;100.00;95767.94;5051428;28;20190;-68
2021/11/08 02:50:03;;;;;;;1999.90;999.90;;;;;;;6.23;100.00;95764.84;5051358;28;20247;-68
2021/11/08 02:52:31;;;;;;;1999.90;999.90;;;;;;;6.12;100.00;95758.94;5051396;28;20200;-68
2021/11/08 02:55:01;;;;;;;1999.90;999.90;;;;;;;6.06;100.00;95757.38;5051518;28;20292;-68
2021/11/08 02:57:28;;;;;;;1999.90;999.90;;;;;;;6.03;100.00;95756.09;5051390;28;20273;-68
2021/11/08 02:59:58;;;;;;;1999.90;999.90;;;;;;;5.98;100.00;95748.34;5050963;28;20731;-68
2021/11/08 03:02:25;;;;;;;1999.90;999.90;;;;;;;5.98;100.00;95753.50;5051328;28;20228;-68
2021/11/08 03:04:53;;;;;;;1999.90;999.90;;;;;;;6.08;100.00;95750.16;5050938;28;20236;-68
2021/11/08 03:07:22;;;;;;;1999.90;999.90;;;;;;;6.15;100.00;95742.94;5051396;28;20193;-68
2021/11/08 03:09:55;;;;;;;1999.90;999.90;;;;;;;6.13;100.00;95745.00;5051017;28;20266;-68
2021/11/08 03:12:26;;;;;;;1999.90;999.90;;;;;;;6.10;100.00;95744.75;5050963;28;20182;-68
2021/11/08 03:15:01;;;;;;;1999.90;999.90;;;;;;;6.17;100.00;95740.09;5051250;28;20247;-68
2021/11/08 03:17:33;;;;;;;1999.90;999.90;;;;;;;6.13;100.00;95744.25;5051145;28;20242;-68
2021/11/08 03:20:00;;;;;;;1999.90;999.90;;;;;;;6.16;100.00;95743.72;5050873;28;20201;-68
2021/11/08 03:22:32;;;;;;;1999.90;999.90;;;;;;;6.11;100.00;95746.28;5050907;28;20221;-68
2021/11/08 03:25:01;;;;;;;1999.90;999.90;;;;;;;6.05;100.00;95753.25;5050916;28;20255;-68
2021/11/08 03:27:43;;;;;;;1999.90;999.90;;;;;;;6.09;100.00;95738.03;5051267;28;20208;-68
2021/11/08 03:30:11;;;;;;;1999.90;999.90;;;;;;;6.16;100.00;95741.91;5051047;28;20193;-68
2021/11/08 03:32:38;;;;;;;1999.90;999.90;;;;;;;6.19;100.00;95743.19;5050828;28;20621;-68
2021/11/08 03:35:07;;;;;;;1999.90;999.90;;;;;;;6.19;100.00;95733.63;5050504;28;20201;-68
2021/11/08 03:37:38;;;;;;;1999.90;999.90;;;;;;;6.26;100.00;95731.59;5051102;28;20225;-68
2021/11/08 03:40:07;;;;;;;1999.90;999.90;;;;;;;6.31;100.00;95726.41;5050837;28;20216;-68
2021/11/08 03:42:36;;;;;;;1999.90;999.90;;;;;;;6.35;100.00;95736.97;5050345;28;20316;-68
2021/11/08 03:45:04;;;;;;;1999.90;999.90;;;;;;;6.42;100.00;95732.34;5050373;28;20201;-68
2021/11/08 03:47:31;;;;;;;1999.90;999.90;;;;;;;6.54;100.00;95727.66;5050799;28;20255;-68
2021/11/08 03:49:58;;;;;;;1999.90;999.90;;;;;;;6.51;100.00;95728.19;5050414;28;20217;-68
2021/11/08 03:52:25;;;;;;;1999.90;999.90;;;;;;;6.46;100.00;95731.56;5050276;28;20684;-68
2021/11/08 03:54:52;;;;;;;1999.90;999.90;;;;;;;6.50;100.00;95734.38;5050283;28;20236;-68
2021/11/08 03:57:20;;;;;;;1999.90;999.90;;;;;;;6.55;100.00;95724.06;5050507;28;20224;-68
2021/11/08 03:59:48;;;;;;;1999.90;999.90;;;;;;;6.62;100.00;95723.78;5050067;28;20208;-68
2021/11/08 04:02:15;;;;;;;1999.90;999.90;;;;;;;6.61;100.00;95719.66;5050495;28;20278;-68
2021/11/08 04:04:43;;;;;;;1999.90;999.90;;;;;;;6.43;100.00;95726.91;5049828;28;20255;-68
2021/11/08 04:07:10;;;;;;;1999.90;999.90;;;;;;;6.51;100.00;95725.59;5050517;28;20226;-68
2021/11/08 04:09:38;;;;;;;1999.90;999.90;;;;;;;6.53;100.00;95723.53;5050147;28;20239;-68
2021/11/08 04:12:07;;;;;;;1999.90;999.90;;;;;;;6.47;100.00;95724.59;5050009;28;20205;-68
2021/11/08 04:14:35;;;;;;;1999.90;999.90;;;;;;;6.55;100.00;95734.38;5049969;28;20226;-67
2021/11/08 04:17:04;;;;;;;1999.90;999.90;;;;;;;6.54;100.00;95735.41;5049556;28;20254;-68
2021/11/08 04:19:32;;;;;;;1999.90;999.90;;;;;;;6.51;100.00;95735.94;5049943;28;20192;-68
2021/11/08 04:22:01;;;;;;;1999.90;999.90;;;;;;;6.53;100.00;95736.44;5049997;28;20194;-68
2021/11/08 04:24:29;;;;;;;1999.90;999.90;;;;;;;6.52;100.00;95742.66;5049794;28;20713;-68
2021/11/08 04:26:56;;;;;;;1999.90;999.90;;;;;;;6.59;100.00;95737.97;5049899;28;20212;-68
2021/11/08 04:29:24;;;;;;;1999.90;999.90;;;;;;;6.58;100.00;95740.81;5049769;28;20205;-68
2021/11/08 04:31:52;;;;;;;1999.90;999.90;;;;;;;6.68;100.00;95741.56;5049764;28;20232;-68
2021/11/08 04:34:23;;;;;;;1999.90;999.90;;;;;;;6.64;100.00;95735.38;5049739;28;20193;-68
2021/11/08 04:39:40;;;;;;;1999.90;999.90;;;;;;;6.59;100.00;95742.38;5046280;28;20240;-68
2021/11/08 04:42:10;;;;;;;1999.90;999.90;;;;;;;6.52;100.00;95731.56;5049715;28;20215;-68
2021/11/08 04:44:51;;;;;;;1999.90;999.90;;;;;;;6.54;100.00;95732.03;5049680;28;20576;-68
2021/11/08 04:50:14;;;;;;;1999.90;999.90;;;;;;;6.52;100.00;95740.06;5049955;28;20247;-67
2021/11/08 04:53:03;;;;;;;1999.90;999.90;;;;;;;6.52;100.00;95740.06;5049586;28;20227;-68
2021/11/08 04:55:43;;;;;;;1999.90;999.90;;;;;;;6.53;100.00;95744.19;5049801;28;20239;-68
2021/11/08 04:58:42;;;;;;;1999.90;999.90;;;;;;;6.61;100.00;95748.81;5049500;28;20199;-68
2021/11/08 05:23:32;;;;;;;1999.90;999.90;;;;;;;6.55;100.00;95725.84;5032905;28;20205;-68
2021/11/08 05:28:45;;;;;;;1999.90;999.90;;;;;;;6.49;100.00;95735.41;5033081;28;20188;-68
2021/11/08 05:31:12;;;;;;;1999.90;999.90;;;;;;;6.56;100.00;95735.16;5032899;28;20197;-68
2021/11/08 05:33:39;;;;;;;1999.90;999.90;;;;;;;6.61;100.00;95724.81;5032888;28;20232;-68
2021/11/08 05:36:06;;;;;;;1999.90;999.90;;;;;;;6.53;100.00;95720.94;5033004;28;20198;-68
2021/11/08 05:38:35;;;;;;;1999.90;999.90;;;;;;;6.55;100.00;95721.47;5033016;28;20256;-68
2021/11/08 05:41:02;;;;;;;1999.90;999.90;;;;;;;6.65;100.00;95726.59;5032668;28;20288;-68
2021/11/08 05:43:29;;;;;;;1999.90;999.90;;;;;;;6.77;100.00;95734.06;5032579;28;20222;-68
2021/11/08 05:45:56;;;;;;;1999.90;999.90;;;;;;;6.76;100.00;95735.88;5032558;28;20232;-68
2021/11/08 05:48:23;;;;;;;1999.90;999.90;;;;;;;6.77;100.00;95732.28;5032952;28;20264;-68
2021/11/08 05:50:50;;;;;;;1999.90;999.90;;;;;;;6.92;100.00;95729.59;5032859;28;20214;-68
2021/11/08 05:53:17;;;;;;;1999.90;999.90;;;;;;;7.02;100.00;95728.06;5032506;28;20686;-68
2021/11/08 05:55:51;;;;;;;1999.90;999.90;;;;;;;7.06;100.00;95747.16;5032879;28;20624;-68
2021/11/08 05:58:39;;;;;;;1999.90;999.90;;;;;;;6.99;100.00;95741.47;5032347;28;20196;-68
2021/11/08 06:50:43;;;;;;;1999.90;999.90;;;;;;;8.14;100.00;95770.34;4951198;29;20200;-68
2021/11/08 06:53:17;;;;;;;1999.90;999.90;;;;;;;8.29;100.00;95759.84;5011928;28;20233;-68
2021/11/08 06:55:47;;;;;;;1999.90;999.90;;;;;;;8.34;100.00;95746.91;5031490;28;20223;-68
2021/11/08 06:58:17;;;;;;;1999.90;999.90;;;;;;;8.35;100.00;95753.63;5031455;28;20205;-68
2021/11/08 07:00:47;;;;;;;1999.90;999.90;;;;;;;8.47;100.00;95741.06;5031555;28;20203;-68
2021/11/08 07:03:14;;;;;;;1999.90;999.90;;;;;;;8.39;100.00;95748.66;5031292;28;20702;-68
2021/11/08 07:05:41;;;;;;;1999.90;999.90;;;;;;;8.56;100.00;95749.81;5045018;28;20229;-68
2021/11/08 07:08:10;;;;;;;1999.90;999.90;;;;;;;8.61;100.00;95751.59;5051290;28;20267;-68
2021/11/08 07:10:38;;;;;;;1999.90;999.90;;;;;;;8.58;100.00;95741.75;5051293;28;20203;-68
2021/11/08 07:13:06;;;;;;;1999.90;999.90;;;;;;;8.72;100.00;95741.91;5050958;28;20201;-68
2021/11/08 07:15:33;;;;;;;1999.90;999.90;;;;;;;8.64;100.00;95740.66;5051259;28;20843;-68
2021/11/08 07:18:02;;;;;;;1999.90;999.90;;;;;;;8.82;100.00;95739.94;5051125;28;20194;-68
2021/11/08 07:20:31;;;;;;;1999.90;999.90;;;;;;;8.96;100.00;95738.28;5050930;28;20288;-68
2021/11/08 07:22:59;;;;;;;1999.90;999.90;;;;;;;9.06;100.00;95729.59;5050672;28;20208;-68
2021/11/08 07:25:26;;;;;;;1999.90;999.90;;;;;;;9.26;100.00;95731.19;5050854;28;20717;-69
2021/11/08 07:27:53;;;;;;;1999.90;999.90;;;;;;;9.47;100.00;95715.06;5050709;28;20198;-69
2021/11/08 07:30:22;;;;;;;1999.90;999.90;;;;;;;9.59;100.00;95729.44;5051098;28;20197;-68
2021/11/08 07:32:49;;;;;;;1999.90;999.90;;;;;;;9.79;100.00;95721.38;5050572;28;20291;-68
2021/11/08 07:35:18;;;;;;;1999.90;999.90;;;;;;;9.88;100.00;95722.28;5050774;28;20197;-68
2021/11/08 07:37:45;;;;;;;1999.90;999.90;;;;;;;9.96;100.00;95716.44;5050511;28;20625;-68
2021/11/08 07:40:13;;;;;;;1999.90;999.90;;;;;;;10.07;100.00;95724.81;5050602;28;20228;-68
2021/11/08 07:42:42;;;;;;;1999.90;999.90;;;;;;;10.19;100.00;95728.56;5049704;28;20196;-69
2021/11/08 07:45:09;;;;;;;1999.90;999.90;;;;;;;10.27;100.00;95725.31;5041718;28;20229;-69
2021/11/08 07:47:37;;;;;;;1999.90;999.90;;;;;;;10.36;100.00;95723.59;5050387;28;20205;-68
2021/11/08 07:50:05;;;;;;;1999.90;999.90;;;;;;;10.43;100.00;95732.84;5050356;28;20284;-69
2021/11/08 07:52:34;;;;;;;1999.90;999.90;;;;;;;10.49;100.00;95732.50;5050598;28;20229;-68
2021/11/08 07:55:01;;;;;;;1999.90;999.90;;;;;;;10.49;100.00;95734.31;5050389;28;20193;-68
2021/11/08 07:57:28;;;;;;;1999.90;999.90;;;;;;;10.64;100.00;95736.66;5050187;28;20201;-68
2021/11/08 07:59:56;;;;;;;1999.90;999.90;;;;;;;10.74;100.00;95729.44;5050200;28;20687;-68
2021/11/08 08:02:23;;;;;;;1999.90;999.90;;;;;;;10.79;100.00;95741.56;5050112;28;20574;-69
2021/11/08 08:04:50;;;;;;;1999.90;999.90;;;;;;;10.85;100.00;95739.66;5049868;28;20279;-68
2021/11/08 08:07:18;;;;;;;1999.90;999.90;;;;;;;10.95;100.00;95732.44;5050080;28;20205;-68
2021/11/08 08:09:46;;;;;;;1999.90;999.90;;;;;;;11.12;100.00;95729.25;5049737;28;20555;-68
2021/11/08 08:12:13;;;;;;;1999.90;999.90;;;;;;;11.01;100.00;95727.91;5050472;28;20681;-68
2021/11/08 08:14:40;;;;;;;1999.90;999.90;;;;;;;10.99;100.00;95722.22;5050354;28;20201;-68
2021/11/08 08:17:08;;;;;;;1999.90;999.90;;;;;;;10.89;100.00;95714.63;5050332;28;20205;-68
2021/11/08 08:19:35;;;;;;;1999.90;999.90;;;;;;;11.02;100.00;95719.03;5049994;28;20192;-68
2021/11/08 08:22:03;;;;;;;1999.90;999.90;;;;;;;11.17;100.00;95716.91;5050485;28;20219;-68
2021/11/08 08:24:30;;;;;;;1999.90;999.90;;;;;;;11.15;100.00;95713.84;5050215;28;20225;-68
2021/11/08 08:27:03;;;;;;;1999.90;999.90;;;;;;;11.06;100.00;95710.34;5050278;28;20262;-68
2021/11/08 08:29:31;;;;;;;1999.90;999.90;;;;;;;11.21;100.00;95707.47;5050340;28;20209;-68
2021/11/08 08:31:58;;;;;;;1999.90;999.90;;;;;;;11.32;100.00;95712.44;5049848;28;20258;-68
2021/11/08 08:34:29;;;;;;;1999.90;999.90;;;;;;;11.22;100.00;95716.03;5049887;28;20197;-68
2021/11/08 08:36:57;;;;;;;1999.90;999.90;;;;;;;11.16;100.00;95709.38;5050077;28;20185;-68
2021/11/08 08:39:24;;;;;;;1999.90;999.90;;;;;;;11.04;100.00;95717.69;5050222;28;20197;-68
2021/11/08 08:41:52;;;;;;;1999.90;999.90;;;;;;;10.90;100.00;95714.34;5049877;28;20204;-68
2021/11/08 08:44:21;;;;;;;1999.90;999.90;;;;;;;10.93;100.00;95711.16;5049649;28;20274;-68
2021/11/08 08:46:49;;;;;;;1999.90;999.90;;;;;;;10.80;100.00;95709.31;5050160;28;20604;-68
2021/11/08 08:49:17;;;;;;;1999.90;999.90;;;;;;;10.77;100.00;95699.50;5049782;28;20199;-67
2021/11/08 08:51:44;;;;;;;1999.90;999.90;;;;;;;10.88;100.00;95708.66;5050012;28;20205;-68
2021/11/08 08:54:12;;;;;;;1999.90;999.90;;;;;;;10.95;100.00;95703.84;5050094;28;20254;-68
2021/11/08 08:56:40;;;;;;;1999.90;999.90;;;;;;;11.12;100.00;95698.81;5051143;28;20205;-68
2021/11/08 08:59:07;;;;;;;1999.90;999.90;;;;;;;11.08;100.00;95691.88;5053637;28;20205;-68
2021/11/08 09:01:35;;;;;;;1999.90;999.90;;;;;;;11.16;100.00;95689.34;5053525;28;20684;-68
2021/11/08 09:04:03;;;;;;;1999.90;999.90;;;;;;;11.39;100.00;95692.03;5053227;28;20257;-68
2021/11/08 09:06:30;;;;;;;1999.90;999.90;;;;;;;11.40;100.00;95688.38;5053804;28;20190;-68
2021/11/08 09:08:57;;;;;;;1999.90;999.90;;;;;;;11.57;100.00;95691.09;5053667;28;20891;-67
2021/11/08 09:11:26;;;;;;;1999.90;999.90;;;;;;;11.78;100.00;95679.19;5053566;28;20197;-68
2021/11/08 09:13:53;;;;;;;1999.90;999.90;;;;;;;12.02;100.00;95676.28;5053471;28;20224;-67
2021/11/08 09:16:20;;;;;;;1999.90;999.90;;;;;;;12.26;100.00;95673.34;5053337;28;20691;-68
2021/11/08 09:18:53;;;;;;;1999.90;999.90;;;;;;;12.50;100.00;95673.81;5053460;28;20201;-68
2021/11/08 09:21:21;;;;;;;1999.90;999.90;;;;;;;12.77;100.00;95675.41;5053205;28;20221;-68
2021/11/08 09:23:50;;;;;;;1999.90;999.90;;;;;;;13.03;100.00;95670.28;5053429;28;20228;-68
2021/11/08 09:26:18;;;;;;;1999.90;999.90;;;;;;;13.35;100.00;95675.09;5053317;28;20208;-68
2021/11/08 09:28:47;;;;;;;1999.90;999.90;;;;;;;13.49;100.00;95669.75;5053021;28;20197;-67
2021/11/08 09:31:14;;;;;;;1999.90;999.90;;;;;;;13.72;100.00;95677.13;5053318;28;20200;-68
2021/11/08 09:33:42;;;;;;;1999.90;999.90;;;;;;;13.92;100.00;95669.72;5053299;28;20730;-67
2021/11/08 09:36:12;;;;;;;1999.90;999.90;;;;;;;14.03;100.00;95655.28;5052955;28;20197;-67
2021/11/08 09:38:49;;;;;;;1999.90;999.90;;;;;;;14.15;100.00;95664.00;5052863;28;20284;-68
2021/11/08 09:41:18;;;;;;;1999.90;999.90;;;;;;;14.28;100.00;95662.28;5053068;28;20272;-68
2021/11/08 09:43:47;;;;;;;1999.90;999.90;;;;;;;14.48;100.00;95666.88;5052732;28;20756;-68
2021/11/08 09:46:15;;;;;;;1999.90;999.90;;;;;;;14.65;100.00;95664.19;5052871;28;20204;-68
2021/11/08 09:48:42;;;;;;;1999.90;999.90;;;;;;;14.89;100.00;95657.63;5052621;28;20673;-68
2021/11/08 09:51:15;;;;;;;1999.90;999.90;;;;;;;15.08;99.45;95652.75;5052559;28;20205;-68
2021/11/08 09:53:43;;;;;;;1999.90;999.90;;;;;;;15.05;97.61;95640.25;5052830;28;20205;-68
2021/11/08 09:56:12;;;;;;;1999.90;999.90;;;;;;;15.16;97.22;95651.91;5052619;28;20205;-68
2021/11/08 09:58:39;;;;;;;1999.90;999.90;;;;;;;15.39;97.92;95644.53;5052443;28;20208;-67
2021/11/08 10:01:09;;;;;;;1999.90;999.90;;;;;;;15.54;96.83;95643.97;5052540;28;20205;-68
2021/11/08 10:03:37;;;;;;;1999.90;999.90;;;;;;;15.55;94.71;95642.09;5052663;28;20185;-68
2021/11/08 10:06:05;;;;;;;1999.90;999.90;;;;;;;15.68;94.56;95641.09;5052508;28;20310;-68
2021/11/08 10:08:36;;;;;;;1999.90;999.90;;;;;;;15.85;93.16;95639.06;5052221;28;20903;-68
2021/11/08 10:11:05;;;;;;;1999.90;999.90;;;;;;;16.05;91.32;95640.09;5052228;28;20185;-67
2021/11/08 10:13:38;;;;;;;1999.90;999.90;;;;;;;16.04;89.86;95643.81;5052185;28;20632;-67
2021/11/08 10:16:07;;;;;;;1999.90;999.90;;;;;;;16.13;89.91;95634.03;5052260;28;20182;-68
2021/11/08 10:18:35;;;;;;;1999.90;999.90;;;;;;;16.41;87.93;95633.41;5051875;28;20246;-68
2021/11/08 10:21:09;;;;;;;1999.90;999.90;;;;;;;16.66;86.40;95634.97;5051967;28;20205;-68
2021/11/08 10:23:39;;;;;;;1999.90;999.90;;;;;;;16.87;85.46;95627.78;5052218;28;20196;-68
2021/11/08 10:26:09;;;;;;;1999.90;999.90;;;;;;;17.01;85.45;95622.94;5052042;28;20292;-68
2021/11/08 10:28:36;;;;;;;1999.90;999.90;;;;;;;17.17;84.25;95618.53;5052069;28;20197;-67
2021/11/08 10:31:09;;;;;;;1999.90;999.90;;;;;;;17.30;84.15;95621.13;5052230;28;20259;-67
2021/11/08 10:33:38;;;;;;;1999.90;999.90;;;;;;;17.31;84.13;95609.53;5051838;28;20197;-68
2021/11/08 10:36:10;;;;;;;1999.90;999.90;;;;;;;17.30;84.99;95610.63;5051781;28;20197;-68
2021/11/08 10:38:41;;;;;;;1999.90;999.90;;;;;;;17.31;83.71;95612.16;5052056;28;20637;-68
2021/11/08 10:41:11;;;;;;;1999.90;999.90;;;;;;;17.36;83.22;95610.06;5051844;28;20189;-68
2021/11/08 10:43:40;;;;;;;1999.90;999.90;;;;;;;17.47;82.25;95615.63;5051835;28;20193;-68
2021/11/08 10:46:09;;;;;;;1999.90;999.90;;;;;;;17.60;80.38;95609.22;5051834;28;20359;-68
2021/11/08 10:48:38;;;;;;;1999.90;999.90;;;;;;;17.71;79.82;95599.78;5051815;28;20214;-68
2021/11/08 10:51:08;;;;;;;1999.90;999.90;;;;;;;17.86;79.59;95606.16;5051752;28;20263;-66
2021/11/08 10:53:54;;;;;;;1999.90;999.90;;;;;;;17.88;80.52;95609.25;5051795;28;20193;-68
2021/11/08 10:56:29;;;;;;;1999.90;999.90;;;;;;;17.92;79.21;95607.47;5051685;28;20189;-67
2021/11/08 10:58:58;;;;;;;1999.90;999.90;;;;;;;18.02;79.17;95617.50;5051360;28;20184;-68
2021/11/08 11:01:30;;;;;;;1999.90;999.90;;;;;;;17.98;79.08;95617.38;5051542;28;20204;-68
2021/11/08 11:03:59;;;;;;;1999.90;999.90;;;;;;;17.74;78.62;95628.00;5051076;28;20256;-67
2021/11/08 11:06:41;;;;;;;1999.90;999.90;;;;;;;17.91;77.86;95627.72;5031596;28;20202;-68
2021/11/08 11:09:19;;;;;;;1999.90;999.90;;;;;;;18.01;77.03;95618.59;5031327;28;20198;-68
2021/11/08 11:11:47;;;;;;;1999.90;999.90;;;;;;;18.04;77.24;95612.63;5031490;28;20182;-67
2021/11/08 11:14:14;;;;;;;1999.90;999.90;;;;;;;18.11;77.18;95614.69;5031345;28;20627;-67
2021/11/08 11:16:47;;;;;;;1999.90;999.90;;;;;;;18.17;76.76;95608.84;5031373;28;20604;-67
2021/11/08 11:19:16;;;;;;;1999.90;999.90;;;;;;;18.33;78.64;95603.59;5031007;28;20186;-68
2021/11/08 11:21:57;;;;;;;1999.90;999.90;;;;;;;18.31;80.46;95600.53;5031107;28;20202;-68
2021/11/08 11:24:41;;;;;;;1999.90;999.90;;;;;;;18.20;79.62;95602.13;5030819;28;20710;-67
2021/11/08 11:27:11;;;;;;;1999.90;999.90;;;;;;;18.14;79.56;95608.75;5031031;28;20717;-68
2021/11/08 11:29:38;;;;;;;1999.90;999.90;;;;;;;18.21;79.23;95604.44;5030866;28;20708;-67
2021/11/08 11:32:17;;;;;;;1999.90;999.90;;;;;;;18.28;78.90;95598.59;5030766;28;20231;-68
2021/11/08 11:34:44;;;;;;;1999.90;999.90;;;;;;;18.36;79.48;95600.28;5030784;28;20185;-68
2021/11/08 11:37:14;;;;;;;1999.90;999.90;;;;;;;18.33;79.13;95604.34;5030935;28;20586;-68
2021/11/08 11:39:43;;;;;;;1999.90;999.90;;;;;;;18.13;79.82;95604.59;5030900;28;20201;-68
2021/11/08 11:42:10;;;;;;;1999.90;999.90;;;;;;;18.20;80.29;95600.28;5030841;28;20677;-68
2021/11/08 11:44:38;;;;;;;1999.90;999.90;;;;;;;18.28;80.15;95596.69;5030566;28;20320;-68
2021/11/08 11:47:15;;;;;;;1999.90;999.90;;;;;;;18.33;79.69;95604.34;5030665;28;20201;-68
2021/11/08 11:49:44;;;;;;;1999.90;999.90;;;;;;;18.41;79.83;95608.69;5030699;28;20761;-68
2021/11/08 11:52:11;;;;;;;1999.90;999.90;;;;;;;18.47;79.20;95602.06;5031122;28;20205;-68
2021/11/08 11:54:39;;;;;;;1999.90;999.90;;;;;;;18.53;76.73;95597.28;5030819;28;20201;-68
2021/11/08 11:57:08;;;;;;;1999.90;999.90;;;;;;;18.60;75.59;95596.72;5031016;28;20251;-68
2021/11/08 11:59:37;;;;;;;1999.90;999.90;;;;;;;18.64;74.20;95598.34;5030601;28;20207;-68
2021/11/08 12:02:05;;;;;;;1999.90;999.90;;;;;;;18.73;73.18;95591.00;5030474;28;20252;-68
2021/11/08 12:04:32;;;;;;;1999.90;999.90;;;;;;;18.81;72.21;95590.09;5034245;28;20241;-68
2021/11/08 12:07:01;;;;;;;1999.90;999.90;;;;;;;19.11;72.60;95590.34;5050480;28;20204;-68
2021/11/08 12:09:31;;;;;;;1999.90;999.90;;;;;;;19.17;68.63;95588.22;5050167;28;20562;-68
2021/11/08 12:11:59;;;;;;;1999.90;999.90;;;;;;;19.18;68.53;95594.97;5050845;28;20242;-68
2021/11/08 12:14:32;;;;;;;1999.90;999.90;;;;;;;19.29;67.92;95588.06;5050292;28;20251;-68
2021/11/08 12:17:02;;;;;;;1999.90;999.90;;;;;;;19.45;69.31;95585.41;5049845;28;20193;-68
2021/11/08 12:19:33;;;;;;;1999.90;999.90;;;;;;;19.65;68.46;95581.66;5050283;28;20194;-69
2021/11/08 12:22:13;;;;;;;1999.90;999.90;;;;;;;19.73;68.04;95583.28;5050386;28;20247;-68